createdAt,value
2023-01-21T00:00:23.115Z,47.58
2023-01-21T00:02:49.803Z,51.50
2023-01-21T00:05:16.565Z,40.13
2023-01-21T00:07:43.238Z,54.88
2023-01-21T00:10:10.298Z,52.13
2023-01-21T00:12:38.558Z,43.28
2023-01-21T00:15:05.673Z,34.25
2023-01-21T00:17:35.817Z,34.80
2023-01-21T00:20:04.859Z,31.33
2023-01-21T00:22:31.960Z,33.25
2023-01-21T00:24:58.840Z,32.70
2023-01-21T00:27:25.557Z,31.92
2023-01-21T00:29:52.214Z,22.70
2023-01-21T00:32:19.694Z,24.05
2023-01-21T00:34:46.609Z,36.92
2023-01-21T00:37:13.277Z,37.28
2023-01-21T00:39:42.803Z,35.08
2023-01-21T00:42:11.200Z,38.97
2023-01-21T00:44:38.739Z,37.25
2023-01-21T00:47:05.902Z,38.30
2023-01-21T00:49:33.083Z,36.80
2023-01-21T00:54:26.582Z,37.92
2023-01-21T00:56:53.399Z,38.60
2023-01-21T00:59:20.208Z,40.88
2023-01-21T01:01:46.964Z,42.58
2023-01-21T01:04:14.424Z,39.55
2023-01-21T01:06:41.094Z,41.50
2023-01-21T01:09:08.293Z,28.27
2023-01-21T01:11:35.019Z,41.13
2023-01-21T01:14:01.752Z,44.45
2023-01-21T01:16:28.486Z,44.17
2023-01-21T01:18:55.684Z,44.63
2023-01-21T01:23:52.186Z,47.65
2023-01-21T01:26:21.537Z,43.55
2023-01-21T01:28:48.837Z,44.78
2023-01-21T01:33:43.881Z,38.53
2023-01-21T01:36:20.603Z,43.58
2023-01-21T01:38:47.366Z,45.08
2023-01-21T01:41:23.974Z,38.85
2023-01-21T01:43:52.868Z,45.08
2023-01-21T01:46:20.909Z,42.65
2023-01-21T01:48:57.317Z,38.58
2023-01-21T01:51:31.092Z,39.25
2023-01-21T01:53:58.393Z,36.65
2023-01-21T01:58:52.995Z,36.85
2023-01-21T02:01:19.786Z,36.47
2023-01-21T02:03:54.333Z,33.33
2023-01-21T02:06:21.042Z,37.90
2023-01-21T02:08:48.305Z,35.28
2023-01-21T02:13:46.755Z,32.83
2023-01-21T02:16:33.915Z,39.00
2023-01-21T02:19:12.297Z,32.40
2023-01-21T02:22:08.541Z,33.47
2023-01-21T02:24:55.745Z,33.70
2023-01-21T02:27:47.529Z,33.20
2023-01-21T02:30:48.898Z,34.53
2023-01-21T02:33:24.776Z,33.17
2023-01-21T02:36:25.371Z,35.25
2023-01-21T02:39:04.166Z,38.00
2023-01-21T02:41:41.795Z,36.22
2023-01-21T02:44:40.491Z,36.92
2023-01-21T02:47:28.437Z,36.42
2023-01-21T02:50:12.967Z,41.65
2023-01-21T02:52:39.695Z,42.67
2023-01-21T02:55:13.794Z,32.75
2023-01-21T02:57:47.068Z,40.17
2023-01-21T03:00:44.217Z,36.90
2023-01-21T03:03:48.518Z,39.90
2023-01-21T03:06:18.423Z,39.42
2023-01-21T03:09:02.047Z,36.90
2023-01-21T03:11:29.291Z,37.80
2023-01-21T03:16:59.400Z,41.10
2023-01-21T03:19:33.073Z,37.38
2023-01-21T03:22:02.515Z,41.83
2023-01-21T03:24:29.552Z,37.63
2023-01-21T03:26:58.924Z,39.83
2023-01-21T03:29:28.668Z,39.65
2023-01-21T03:31:59.712Z,45.47
2023-01-21T03:34:30.395Z,37.55
2023-01-21T03:37:07.639Z,46.08
2023-01-21T03:39:51.703Z,28.25
2023-01-21T03:42:18.504Z,35.22
2023-01-21T03:44:46.171Z,45.40
2023-01-21T03:47:29.449Z,36.75
2023-01-21T03:50:10.569Z,41.25
2023-01-21T03:52:44.729Z,39.03
2023-01-21T03:55:13.131Z,45.35
2023-01-21T03:57:39.825Z,41.50
2023-01-21T04:00:07.520Z,40.40
2023-01-21T04:02:34.441Z,37.90
2023-01-21T04:05:01.156Z,40.28
2023-01-21T04:07:28.106Z,39.53
2023-01-21T04:09:54.785Z,42.80
2023-01-21T04:12:21.603Z,46.42
2023-01-21T04:14:48.275Z,35.90
2023-01-21T04:17:14.996Z,39.65
2023-01-21T04:19:41.663Z,32.72
2023-01-21T04:22:08.314Z,38.35
2023-01-21T04:24:35.269Z,35.42
2023-01-21T04:27:02.156Z,39.67
2023-01-21T04:29:28.839Z,37.35
2023-01-21T04:31:55.642Z,33.83
2023-01-21T04:34:22.421Z,35.90
2023-01-21T04:36:49.086Z,35.55
2023-01-21T04:39:15.865Z,26.45
2023-01-21T04:41:42.738Z,38.92
2023-01-21T04:44:09.449Z,36.42
2023-01-21T04:46:36.105Z,21.90
2023-01-21T04:49:03.086Z,32.40
2023-01-21T04:51:29.773Z,40.03
2023-01-21T04:53:56.423Z,46.95
2023-01-21T04:56:23.109Z,40.90
2023-01-21T04:58:49.849Z,38.42
2023-01-21T05:01:16.576Z,40.40
2023-01-21T05:03:43.326Z,35.67
2023-01-21T05:06:10.334Z,33.20
2023-01-21T05:08:37.044Z,25.42
2023-01-21T05:11:03.754Z,25.20
2023-01-21T05:13:30.411Z,15.30
2023-01-21T05:16:03.526Z,21.58
2023-01-21T05:18:30.342Z,25.27
2023-01-21T05:20:57.051Z,22.23
2023-01-21T05:23:23.756Z,16.38
2023-01-21T05:25:50.434Z,29.80
2023-01-21T05:28:17.154Z,25.40
2023-01-21T05:30:44.703Z,28.73
2023-01-21T05:33:11.494Z,26.95
2023-01-21T05:35:38.164Z,19.33
2023-01-21T05:38:04.994Z,34.33
2023-01-21T05:40:31.853Z,34.42
2023-01-21T05:42:58.510Z,41.70
2023-01-21T05:45:25.238Z,42.05
2023-01-21T05:47:52.020Z,35.13
2023-01-21T05:50:18.965Z,29.45
2023-01-21T05:52:45.825Z,30.38
2023-01-21T05:55:12.585Z,33.55
2023-01-21T05:57:39.265Z,33.05
2023-01-21T06:00:06.631Z,21.05
2023-01-21T06:02:33.408Z,36.92
2023-01-21T06:05:00.107Z,31.73
2023-01-21T06:07:26.817Z,22.58
2023-01-21T06:09:53.578Z,32.75
2023-01-21T06:12:20.235Z,36.45
2023-01-21T06:14:46.907Z,32.70
2023-01-21T06:17:13.768Z,46.10
2023-01-21T06:19:40.476Z,33.90
2023-01-21T06:22:07.283Z,39.03
2023-01-21T06:24:34.159Z,30.20
2023-01-21T06:27:00.889Z,29.50
2023-01-21T06:29:27.605Z,31.75
2023-01-21T06:31:54.617Z,31.45
2023-01-21T06:34:21.382Z,30.90
2023-01-21T06:36:48.123Z,18.08
2023-01-21T06:39:14.883Z,33.55
2023-01-21T06:41:41.573Z,33.00
2023-01-21T06:44:08.337Z,31.95
2023-01-21T06:46:35.039Z,32.47
2023-01-21T06:49:01.823Z,27.85
2023-01-21T06:51:28.488Z,34.20
2023-01-21T06:53:55.198Z,36.53
2023-01-21T06:56:22.449Z,22.25
2023-01-21T07:01:15.748Z,29.88
2023-01-21T07:03:42.445Z,26.45
2023-01-21T07:06:09.140Z,34.95
2023-01-21T07:08:35.898Z,33.67
2023-01-21T07:11:02.841Z,30.70
2023-01-21T07:13:29.525Z,31.95
2023-01-21T07:16:00.842Z,34.05
2023-01-21T07:18:28.008Z,28.80
2023-01-21T07:20:54.753Z,31.08
2023-01-21T07:23:21.495Z,26.35
2023-01-21T07:25:48.275Z,35.22
2023-01-21T07:28:15.463Z,31.52
2023-01-21T07:30:42.205Z,29.77
2023-01-21T07:33:10.199Z,29.85
2023-01-21T07:35:37.207Z,33.58
2023-01-21T07:38:04.216Z,32.85
2023-01-21T07:40:31.082Z,44.40
2023-01-21T07:42:57.937Z,33.10
2023-01-21T07:45:25.503Z,35.40
2023-01-21T07:47:52.236Z,37.75
2023-01-21T07:50:19.037Z,29.00
2023-01-21T07:52:45.730Z,30.15
2023-01-21T07:55:12.818Z,36.88
2023-01-21T08:00:06.973Z,33.20
2023-01-21T08:02:38.485Z,29.27
2023-01-21T08:05:06.427Z,29.75
2023-01-21T08:07:33.162Z,28.30
2023-01-21T08:09:59.882Z,29.95
2023-01-21T08:12:27.405Z,28.20
2023-01-21T08:14:54.324Z,28.30
2023-01-21T08:17:21.129Z,29.13
2023-01-21T08:19:47.869Z,30.52
2023-01-21T08:22:14.551Z,33.20
2023-01-21T08:24:41.224Z,23.02
2023-01-21T08:27:07.942Z,37.17
2023-01-21T08:29:34.753Z,45.60
2023-01-21T08:32:01.694Z,49.60
2023-01-21T08:34:28.513Z,42.22
2023-01-21T08:36:55.235Z,38.45
2023-01-21T08:39:21.944Z,44.90
2023-01-21T08:41:49.110Z,37.58
2023-01-21T08:44:15.803Z,38.65
2023-01-21T08:46:42.598Z,44.20
2023-01-21T08:49:09.373Z,37.40
2023-01-21T08:51:36.054Z,34.65
2023-01-21T08:54:06.678Z,37.50
2023-01-21T08:56:33.380Z,46.67
2023-01-21T08:59:00.313Z,37.80
2023-01-21T09:01:27.111Z,31.45
2023-01-21T09:03:58.116Z,34.03
2023-01-21T09:06:26.376Z,41.83
2023-01-21T09:08:53.066Z,35.42
2023-01-21T09:11:19.849Z,30.63
2023-01-21T09:13:46.631Z,33.47
2023-01-21T09:16:19.783Z,45.35
2023-01-21T09:18:47.375Z,36.88
2023-01-21T09:21:14.863Z,35.90
2023-01-21T09:23:42.015Z,37.95
2023-01-21T09:26:20.606Z,38.30
2023-01-21T09:28:53.733Z,46.95
2023-01-21T09:31:21.774Z,45.05
2023-01-21T09:33:51.577Z,34.95
2023-01-21T09:36:22.397Z,41.50
2023-01-21T09:38:50.289Z,40.03
2023-01-21T09:41:41.422Z,33.60
2023-01-21T09:44:14.176Z,34.00
2023-01-21T09:47:06.075Z,37.20
2023-01-21T09:49:41.538Z,41.90
2023-01-21T09:52:35.089Z,34.95
2023-01-21T09:55:02.681Z,36.00
2023-01-21T09:57:35.433Z,38.03
2023-01-21T10:00:37.471Z,39.00
2023-01-21T10:03:10.122Z,44.63
2023-01-21T10:06:00.243Z,33.47
2023-01-21T10:08:33.167Z,38.53
2023-01-21T10:11:23.040Z,35.88
2023-01-21T10:14:26.539Z,36.13
2023-01-21T10:16:56.168Z,38.53
2023-01-21T10:19:33.730Z,38.83
2023-01-21T10:22:14.124Z,36.20
2023-01-21T10:24:51.767Z,31.42
2023-01-21T10:27:21.112Z,32.72
2023-01-21T10:29:57.218Z,32.78
2023-01-21T10:32:27.995Z,35.22
2023-01-21T10:34:57.139Z,28.27
2023-01-21T10:37:43.555Z,31.73
2023-01-21T10:40:18.784Z,30.08
2023-01-21T10:42:59.739Z,29.83
2023-01-21T10:45:44.953Z,30.80
2023-01-21T10:48:28.852Z,29.75
2023-01-21T10:51:20.904Z,30.02
2023-01-21T10:54:06.913Z,35.67
2023-01-21T10:57:01.303Z,30.77
2023-01-21T10:59:33.287Z,37.55
2023-01-21T11:02:10.072Z,33.55
2023-01-21T11:04:40.004Z,30.27
2023-01-21T11:07:11.753Z,35.85
2023-01-21T11:09:42.684Z,32.28
2023-01-21T11:12:13.173Z,32.28
2023-01-21T11:14:39.888Z,26.90
2023-01-21T11:17:07.084Z,29.05
2023-01-21T11:19:33.997Z,30.58
2023-01-21T11:22:12.849Z,32.92
2023-01-21T11:24:43.807Z,28.30
2023-01-21T11:27:22.620Z,29.88
2023-01-21T11:29:50.582Z,33.03
2023-01-21T11:32:20.995Z,34.78
2023-01-21T11:34:57.060Z,30.30
2023-01-21T11:37:25.291Z,29.45
2023-01-21T11:39:57.523Z,29.38
2023-01-21T11:42:24.692Z,29.42
2023-01-21T11:44:57.605Z,32.55
2023-01-21T11:47:48.935Z,28.65
2023-01-21T11:50:28.042Z,36.42
2023-01-21T11:53:06.798Z,35.17
2023-01-21T11:55:50.903Z,30.67
2023-01-21T11:58:26.106Z,25.70
2023-01-21T12:00:55.681Z,24.88
2023-01-21T12:03:37.288Z,31.05
2023-01-21T12:06:06.198Z,27.13
2023-01-21T12:08:36.611Z,35.95
2023-01-21T12:11:06.737Z,31.08
2023-01-21T12:13:41.165Z,31.20
2023-01-21T12:16:37.368Z,28.45
2023-01-21T12:19:34.837Z,34.33
2023-01-21T12:22:22.245Z,29.67
2023-01-21T12:24:51.722Z,37.30
2023-01-21T12:27:31.117Z,37.28
2023-01-21T12:30:19.733Z,32.53
2023-01-21T12:32:51.058Z,31.95
2023-01-21T12:35:28.879Z,31.10
2023-01-21T12:38:17.116Z,30.25
2023-01-21T12:40:50.815Z,33.10
2023-01-21T12:43:30.435Z,33.00
2023-01-21T12:46:14.033Z,32.85
2023-01-21T12:49:02.014Z,39.03
2023-01-21T12:51:44.715Z,33.22
2023-01-21T12:54:37.576Z,33.30
2023-01-21T12:57:13.975Z,29.08
2023-01-21T12:59:53.515Z,35.95
2023-01-21T13:02:23.889Z,31.65
2023-01-21T13:05:04.177Z,33.13
2023-01-21T13:07:49.947Z,37.72
2023-01-21T13:10:31.761Z,38.33
2023-01-21T13:13:16.715Z,34.38
2023-01-21T13:15:48.257Z,27.58
2023-01-21T13:18:28.021Z,26.50
2023-01-21T13:21:03.451Z,31.23
2023-01-21T13:24:15.137Z,29.95
2023-01-21T13:27:02.064Z,35.47
2023-01-21T13:29:37.188Z,33.30
2023-01-21T13:32:31.175Z,29.00
2023-01-21T13:35:25.954Z,34.28
2023-01-21T13:38:18.286Z,34.15
2023-01-21T13:41:08.274Z,36.45
2023-01-21T13:43:55.106Z,36.42
2023-01-21T13:46:55.090Z,26.45
2023-01-21T13:49:55.903Z,31.80
2023-01-21T13:52:43.691Z,35.25
2023-01-21T13:55:32.380Z,38.83
2023-01-21T13:58:11.916Z,32.13
2023-01-21T14:00:46.565Z,31.45
2023-01-21T14:03:51.001Z,31.13
2023-01-21T14:06:44.070Z,36.40
2023-01-21T14:09:22.850Z,39.83
2023-01-21T14:12:01.721Z,34.78
2023-01-21T14:14:49.835Z,40.97
2023-01-21T14:17:29.696Z,38.03
2023-01-21T14:20:14.469Z,38.03
2023-01-21T14:22:52.725Z,31.35
2023-01-21T14:25:19.435Z,33.50
2023-01-21T14:28:23.643Z,27.00
2023-01-21T14:31:09.218Z,31.45
2023-01-21T14:33:46.763Z,32.92
2023-01-21T14:36:20.180Z,35.35
2023-01-21T14:39:11.519Z,37.22
2023-01-21T14:42:10.912Z,44.97
2023-01-21T14:44:43.356Z,42.05
2023-01-21T14:47:40.213Z,37.22
2023-01-21T14:50:08.701Z,37.15
2023-01-21T14:52:42.455Z,37.33
2023-01-21T14:55:30.446Z,30.80
2023-01-21T14:58:00.612Z,45.50
2023-01-21T15:00:32.177Z,38.20
2023-01-21T15:03:26.987Z,37.13
2023-01-21T15:05:57.328Z,38.92
2023-01-21T15:08:45.591Z,37.15
2023-01-21T15:12:06.748Z,41.65
2023-01-21T15:14:36.600Z,33.45
2023-01-21T15:17:03.962Z,35.53
2023-01-21T15:22:20.207Z,39.67
2023-01-21T15:25:15.692Z,38.05
2023-01-21T15:28:20.929Z,46.10
2023-01-21T15:30:59.968Z,34.28
2023-01-21T15:33:27.909Z,37.78
2023-01-21T15:35:56.133Z,38.92
2023-01-21T15:38:24.775Z,40.17
2023-01-21T15:41:01.964Z,34.97
2023-01-21T15:44:04.099Z,46.50
2023-01-21T15:46:39.528Z,40.13
2023-01-21T15:49:25.048Z,32.10
2023-01-21T15:52:23.997Z,42.53
2023-01-21T15:55:06.101Z,41.15
2023-01-21T15:57:53.548Z,32.22
2023-01-21T16:00:49.322Z,34.10
2023-01-21T16:03:28.843Z,48.53
2023-01-21T16:06:33.230Z,35.85
2023-01-21T16:09:07.659Z,41.83
2023-01-21T16:11:53.116Z,40.50
2023-01-21T16:14:38.236Z,37.33
2023-01-21T16:17:19.963Z,39.78
2023-01-21T16:19:51.222Z,36.72
2023-01-21T16:22:22.279Z,44.05
2023-01-21T16:24:56.801Z,34.47
2023-01-21T16:27:30.871Z,39.78
2023-01-21T16:30:05.529Z,43.67
2023-01-21T16:32:33.810Z,38.67
2023-01-21T16:35:01.079Z,42.42
2023-01-21T16:40:15.904Z,38.30
2023-01-21T16:42:43.996Z,40.50
2023-01-21T16:45:22.575Z,38.78
2023-01-21T16:48:00.617Z,32.53
2023-01-21T16:50:29.458Z,37.17
2023-01-21T16:52:58.331Z,50.83
2023-01-21T16:55:27.748Z,49.35
2023-01-21T16:57:56.549Z,45.33
2023-01-21T17:00:31.619Z,41.70
2023-01-21T17:02:59.890Z,43.58
2023-01-21T17:05:33.600Z,42.50
2023-01-21T17:08:04.368Z,53.35
2023-01-21T17:10:39.778Z,51.60
2023-01-21T17:13:15.776Z,44.67
2023-01-21T17:15:48.781Z,45.28
2023-01-21T17:18:25.803Z,42.35
2023-01-21T17:20:52.427Z,49.80
2023-01-21T17:23:23.474Z,40.38
2023-01-21T17:26:08.445Z,37.90
2023-01-21T17:28:59.641Z,46.45
2023-01-21T17:31:35.061Z,44.83
2023-01-21T17:34:24.084Z,43.83
2023-01-21T17:36:52.784Z,35.97
2023-01-21T17:39:44.501Z,45.05
2023-01-21T17:42:18.281Z,39.75
2023-01-21T17:44:50.200Z,35.70
2023-01-21T17:47:24.432Z,43.13
2023-01-21T17:50:00.754Z,47.13
2023-01-21T17:52:28.160Z,45.83
2023-01-21T17:55:31.132Z,43.00
2023-01-21T17:58:00.237Z,37.63
2023-01-21T18:00:36.164Z,43.28
2023-01-21T18:03:02.960Z,41.35
2023-01-21T18:05:30.287Z,35.95
2023-01-21T18:10:26.956Z,35.15
2023-01-21T18:13:00.116Z,38.65
2023-01-21T18:15:27.061Z,36.28
2023-01-21T18:17:56.341Z,36.78
2023-01-21T18:20:29.018Z,44.47
2023-01-21T18:22:57.982Z,43.13
2023-01-21T18:25:26.799Z,35.33
2023-01-21T18:27:57.004Z,41.83
2023-01-21T18:30:25.025Z,44.13
2023-01-21T18:32:52.578Z,46.80
2023-01-21T18:35:22.534Z,41.28
2023-01-21T18:37:49.256Z,44.90
2023-01-21T18:40:21.439Z,24.52
2023-01-21T18:42:55.349Z,38.25
2023-01-21T18:45:26.606Z,40.22
2023-01-21T18:47:54.041Z,42.20
2023-01-21T18:50:23.730Z,42.40
2023-01-21T18:52:50.985Z,42.75
2023-01-21T18:57:48.233Z,37.70
2023-01-21T19:00:22.407Z,41.92
2023-01-21T19:02:53.886Z,40.00
2023-01-21T19:05:22.202Z,46.53
2023-01-21T19:07:48.931Z,45.72
2023-01-21T19:10:18.094Z,37.95
2023-01-21T19:12:45.207Z,40.47
2023-01-21T19:15:21.224Z,40.15
2023-01-21T19:17:48.720Z,42.15
2023-01-21T19:20:20.726Z,45.08
2023-01-21T19:22:48.190Z,40.65
2023-01-21T19:25:17.947Z,41.40
2023-01-21T19:27:47.899Z,35.70
2023-01-21T19:30:30.384Z,37.28
2023-01-21T19:32:58.466Z,32.67
2023-01-21T19:35:36.765Z,37.05
2023-01-21T19:38:10.500Z,40.67
2023-01-21T19:40:37.725Z,31.50
2023-01-21T19:45:31.346Z,39.15
2023-01-21T19:47:58.078Z,33.22
2023-01-21T19:50:26.804Z,28.88
2023-01-21T19:52:54.887Z,30.90
2023-01-21T19:55:23.930Z,37.97
2023-01-21T19:58:00.324Z,34.40
2023-01-21T20:00:31.358Z,32.38
2023-01-21T20:02:58.703Z,31.25
2023-01-21T20:07:54.794Z,34.05
2023-01-21T20:12:49.510Z,28.52
2023-01-21T20:15:18.474Z,31.13
2023-01-21T20:17:47.476Z,33.78
2023-01-21T20:20:15.340Z,24.42
2023-01-21T20:22:42.137Z,33.67
2023-01-21T20:25:14.967Z,26.92
2023-01-21T20:27:44.055Z,28.08
2023-01-21T20:30:25.204Z,25.20
2023-01-21T20:32:51.897Z,43.90
2023-01-21T20:35:20.385Z,17.25
2023-01-21T20:37:50.154Z,25.48
2023-01-21T20:40:21.886Z,32.80
2023-01-21T20:42:50.107Z,27.85
2023-01-21T20:45:18.508Z,28.83
2023-01-21T20:47:50.432Z,23.88
2023-01-21T20:50:20.127Z,28.27
2023-01-21T20:52:47.790Z,28.50
2023-01-21T20:55:17.307Z,27.15
2023-01-21T20:57:46.091Z,31.30
2023-01-21T21:00:24.899Z,28.10
2023-01-21T21:02:55.325Z,25.08
2023-01-21T21:05:22.424Z,24.70
2023-01-21T21:07:49.192Z,23.52
2023-01-21T21:10:19.271Z,27.50
2023-01-21T21:12:46.096Z,25.13
2023-01-21T21:15:13.205Z,29.25
2023-01-21T21:17:40.138Z,21.17
2023-01-21T21:20:11.989Z,27.30
2023-01-21T21:22:38.646Z,20.58
2023-01-21T21:25:06.211Z,26.08
2023-01-21T21:27:32.889Z,29.83
2023-01-21T21:29:59.586Z,17.88
2023-01-21T21:32:26.435Z,22.73
2023-01-21T21:34:55.077Z,23.80
2023-01-21T21:37:21.887Z,25.27
2023-01-21T21:39:48.575Z,21.05
2023-01-21T21:42:34.012Z,16.00
2023-01-21T21:45:00.748Z,25.30
2023-01-21T21:47:45.831Z,30.52
2023-01-21T21:50:12.552Z,25.75
2023-01-21T21:52:39.295Z,26.15
2023-01-21T21:55:06.562Z,17.63
2023-01-21T22:00:00.732Z,22.42
2023-01-21T22:02:27.455Z,15.55
2023-01-21T22:04:54.929Z,23.85
2023-01-21T22:07:21.684Z,24.95
2023-01-21T22:09:48.359Z,29.58
2023-01-21T22:12:15.394Z,18.05
2023-01-21T22:14:42.107Z,24.58
2023-01-21T22:17:08.887Z,18.73
2023-01-21T22:19:37.722Z,29.02
2023-01-21T22:22:04.667Z,38.83
2023-01-21T22:24:31.328Z,19.83
2023-01-21T22:26:58.047Z,30.23
2023-01-21T22:29:24.719Z,28.58
2023-01-21T22:31:51.571Z,21.23
2023-01-21T22:34:18.344Z,21.23
2023-01-21T22:36:47.774Z,20.00
2023-01-21T22:39:14.556Z,20.63
2023-01-21T22:41:41.227Z,27.85
2023-01-21T22:44:07.945Z,17.92
2023-01-21T22:46:34.788Z,23.45
2023-01-21T22:49:01.641Z,26.02
2023-01-21T22:51:28.668Z,24.33
2023-01-21T22:53:55.721Z,26.58
2023-01-21T22:56:39.942Z,22.75
2023-01-21T22:59:11.319Z,25.13
2023-01-21T23:01:38.120Z,26.23
2023-01-21T23:04:05.001Z,24.50
2023-01-21T23:06:31.909Z,20.02
2023-01-21T23:08:58.743Z,23.15
2023-01-21T23:11:25.422Z,27.02
2023-01-21T23:13:53.926Z,28.55
2023-01-21T23:16:21.206Z,25.10
2023-01-21T23:21:23.863Z,24.90
2023-01-21T23:23:50.548Z,27.40
2023-01-21T23:26:19.151Z,15.30
2023-01-21T23:28:46.514Z,25.88
2023-01-21T23:36:12.676Z,22.20
2023-01-21T23:38:39.967Z,24.60
2023-01-21T23:43:35.842Z,20.25
2023-01-21T23:46:06.087Z,26.95
2023-01-21T23:48:32.907Z,23.13
2023-01-21T23:51:07.300Z,27.08
2023-01-21T23:53:34.463Z,27.20
2023-01-21T23:56:10.369Z,26.05
2023-01-21T23:58:37.092Z,27.25
